createdAt,value
2023-01-21T00:01:00.157Z,75.67
2023-01-21T00:03:26.746Z,75.98
2023-01-21T00:05:53.259Z,75.58
2023-01-21T00:08:19.754Z,75.65
2023-01-21T00:10:46.368Z,75.51
2023-01-21T00:13:12.798Z,75.41
2023-01-21T00:15:39.480Z,75.65
2023-01-21T00:18:06.148Z,75.30
2023-01-21T00:20:32.907Z,75.57
2023-01-21T00:22:59.759Z,75.42
2023-01-21T00:25:26.181Z,75.24
2023-01-21T00:27:52.720Z,75.10
2023-01-21T00:30:19.613Z,75.01
2023-01-21T00:32:46.133Z,75.01
2023-01-21T00:35:12.512Z,75.04
2023-01-21T00:37:39.106Z,75.24
2023-01-21T00:40:06.959Z,75.65
2023-01-21T00:42:33.357Z,75.28
2023-01-21T00:45:00.064Z,75.88
2023-01-21T00:47:26.831Z,75.72
2023-01-21T00:49:53.221Z,75.94
2023-01-21T00:52:19.646Z,75.98
2023-01-21T00:54:46.059Z,76.09
2023-01-21T00:57:13.785Z,76.31
2023-01-21T00:59:40.561Z,76.43
2023-01-21T01:02:07.292Z,76.53
2023-01-21T01:04:33.751Z,76.63
2023-01-21T01:07:00.147Z,76.70
2023-01-21T01:09:26.679Z,76.99
2023-01-21T01:11:53.122Z,77.36
2023-01-21T01:14:19.915Z,77.79
2023-01-21T01:16:46.312Z,77.43
2023-01-21T01:19:12.996Z,77.95
2023-01-21T01:21:39.500Z,77.74
2023-01-21T01:24:06.297Z,77.74
2023-01-21T01:26:35.395Z,77.31
2023-01-21T01:29:04.363Z,77.75
2023-01-21T01:31:30.804Z,77.88
2023-01-21T01:33:57.730Z,78.51
2023-01-21T01:36:24.161Z,78.61
2023-01-21T01:38:51.561Z,78.45
2023-01-21T01:41:24.227Z,78.85
2023-01-21T01:44:04.208Z,79.24
2023-01-21T01:46:36.077Z,79.00
2023-01-21T01:49:09.757Z,79.28
2023-01-21T01:51:58.821Z,80.14
2023-01-21T01:54:56.164Z,80.71
2023-01-21T01:57:28.072Z,80.28
2023-01-21T01:59:54.775Z,80.42
2023-01-21T02:02:21.262Z,81.08
2023-01-21T02:04:55.088Z,81.96
2023-01-21T02:07:24.907Z,81.37
2023-01-21T02:09:54.944Z,81.65
2023-01-21T02:12:22.017Z,80.97
2023-01-21T02:14:49.123Z,80.97
2023-01-21T02:17:49.475Z,81.72
2023-01-21T02:20:38.975Z,81.10
2023-01-21T02:23:41.449Z,81.91
2023-01-21T02:26:41.282Z,81.57
2023-01-21T02:29:25.525Z,80.89
2023-01-21T02:32:20.892Z,81.55
2023-01-21T02:35:12.129Z,81.32
2023-01-21T02:38:00.081Z,81.87
2023-01-21T02:40:42.068Z,81.58
2023-01-21T02:43:46.785Z,81.65
2023-01-21T02:46:31.553Z,81.14
2023-01-21T02:49:07.151Z,80.98
2023-01-21T02:51:35.299Z,80.54
2023-01-21T02:54:16.379Z,81.30
2023-01-21T02:56:44.547Z,80.38
2023-01-21T02:59:12.109Z,80.27
2023-01-21T03:02:04.859Z,81.27
2023-01-21T03:04:55.942Z,81.12
2023-01-21T03:07:36.977Z,81.06
2023-01-21T03:10:23.989Z,81.25
2023-01-21T03:13:01.764Z,80.54
2023-01-21T03:16:03.658Z,81.00
2023-01-21T03:18:36.078Z,80.53
2023-01-21T03:21:07.105Z,80.33
2023-01-21T03:23:38.794Z,80.60
2023-01-21T03:26:07.751Z,79.86
2023-01-21T03:28:39.005Z,80.60
2023-01-21T03:31:21.141Z,81.13
2023-01-21T03:33:52.327Z,80.47
2023-01-21T03:36:34.758Z,81.39
2023-01-21T03:39:09.933Z,80.38
2023-01-21T03:41:39.810Z,80.12
2023-01-21T03:44:06.704Z,79.89
2023-01-21T03:46:58.727Z,80.75
2023-01-21T03:49:34.679Z,79.98
2023-01-21T03:52:02.812Z,79.83
2023-01-21T03:54:29.350Z,79.92
2023-01-21T03:56:55.918Z,79.45
2023-01-21T03:59:22.378Z,79.32
2023-01-21T04:01:48.855Z,79.40
2023-01-21T04:04:15.289Z,79.56
2023-01-21T04:06:41.657Z,79.36
2023-01-21T04:09:08.185Z,79.57
2023-01-21T04:11:34.629Z,79.58
2023-01-21T04:14:01.241Z,79.11
2023-01-21T04:16:28.575Z,79.23
2023-01-21T04:18:55.248Z,79.30
2023-01-21T04:21:21.648Z,79.45
2023-01-21T04:23:48.070Z,79.43
2023-01-21T04:26:16.363Z,79.30
2023-01-21T04:28:43.029Z,79.28
2023-01-21T04:31:09.484Z,79.35
2023-01-21T04:33:35.991Z,78.86
2023-01-21T04:36:02.429Z,79.18
2023-01-21T04:38:28.863Z,79.41
2023-01-21T04:40:55.379Z,79.41
2023-01-21T04:43:21.843Z,79.03
2023-01-21T04:45:50.101Z,79.55
2023-01-21T04:48:17.750Z,79.34
2023-01-21T04:50:46.516Z,80.09
2023-01-21T04:53:13.023Z,79.75
2023-01-21T04:55:39.453Z,79.85
2023-01-21T04:58:06.182Z,79.83
2023-01-21T05:00:32.596Z,79.92
2023-01-21T05:02:58.983Z,79.98
2023-01-21T05:05:25.502Z,80.49
2023-01-21T05:07:55.201Z,80.93
2023-01-21T05:10:21.620Z,80.29
2023-01-21T05:12:48.587Z,80.20
2023-01-21T05:15:15.189Z,80.61
2023-01-21T05:17:41.597Z,80.70
2023-01-21T05:20:08.973Z,80.60
2023-01-21T05:22:35.457Z,80.63
2023-01-21T05:25:01.902Z,80.87
2023-01-21T05:27:28.325Z,81.01
2023-01-21T05:29:54.842Z,80.81
2023-01-21T05:32:21.279Z,81.04
2023-01-21T05:34:47.691Z,81.03
2023-01-21T05:37:14.713Z,80.82
2023-01-21T05:39:41.183Z,81.22
2023-01-21T05:42:07.741Z,81.31
2023-01-21T05:44:34.116Z,81.39
2023-01-21T05:47:00.523Z,81.23
2023-01-21T05:49:26.924Z,81.33
2023-01-21T05:51:53.307Z,81.12
2023-01-21T05:54:19.744Z,81.21
2023-01-21T05:56:46.177Z,81.58
2023-01-21T05:59:12.808Z,81.43
2023-01-21T06:01:39.195Z,81.40
2023-01-21T06:04:05.592Z,81.72
2023-01-21T06:06:31.992Z,81.58
2023-01-21T06:08:58.886Z,81.88
2023-01-21T06:11:25.384Z,81.90
2023-01-21T06:13:51.989Z,81.78
2023-01-21T06:16:18.416Z,81.84
2023-01-21T06:18:44.847Z,81.93
2023-01-21T06:21:11.253Z,82.02
2023-01-21T06:23:37.919Z,81.96
2023-01-21T06:26:04.472Z,82.02
2023-01-21T06:28:30.913Z,82.07
2023-01-21T06:30:57.557Z,82.28
2023-01-21T06:33:24.227Z,81.89
2023-01-21T06:35:50.712Z,82.26
2023-01-21T06:38:17.107Z,82.10
2023-01-21T06:40:43.915Z,82.22
2023-01-21T06:43:10.421Z,81.82
2023-01-21T06:45:36.829Z,81.96
2023-01-21T06:48:03.532Z,81.89
2023-01-21T06:50:30.037Z,81.62
2023-01-21T06:52:56.468Z,81.67
2023-01-21T06:55:22.932Z,81.58
2023-01-21T06:57:49.355Z,81.50
2023-01-21T07:00:16.619Z,81.33
2023-01-21T07:02:43.324Z,81.42
2023-01-21T07:05:09.846Z,81.50
2023-01-21T07:07:36.362Z,81.48
2023-01-21T07:10:02.892Z,81.23
2023-01-21T07:12:29.332Z,81.25
2023-01-21T07:14:55.793Z,81.67
2023-01-21T07:17:23.065Z,81.48
2023-01-21T07:19:49.467Z,81.40
2023-01-21T07:22:16.139Z,81.63
2023-01-21T07:24:42.560Z,81.54
2023-01-21T07:27:09.359Z,81.58
2023-01-21T07:29:35.756Z,81.58
2023-01-21T07:32:02.674Z,81.38
2023-01-21T07:34:29.191Z,81.39
2023-01-21T07:36:55.700Z,81.63
2023-01-21T07:39:22.695Z,81.11
2023-01-21T07:41:49.138Z,81.28
2023-01-21T07:44:15.683Z,81.23
2023-01-21T07:46:42.136Z,81.20
2023-01-21T07:49:08.909Z,81.10
2023-01-21T07:51:35.362Z,81.35
2023-01-21T07:54:01.819Z,81.05
2023-01-21T07:56:28.248Z,81.27
2023-01-21T07:58:54.945Z,81.32
2023-01-21T08:01:24.408Z,81.70
2023-01-21T08:03:51.643Z,81.60
2023-01-21T08:06:18.050Z,81.42
2023-01-21T08:08:44.455Z,81.44
2023-01-21T08:11:10.942Z,81.46
2023-01-21T08:13:37.348Z,81.27
2023-01-21T08:16:04.576Z,81.41
2023-01-21T08:18:31.204Z,80.90
2023-01-21T08:20:58.899Z,81.03
2023-01-21T08:23:26.498Z,81.46
2023-01-21T08:25:53.921Z,81.47
2023-01-21T08:28:21.729Z,81.77
2023-01-21T08:30:48.846Z,81.56
2023-01-21T08:33:15.676Z,81.37
2023-01-21T08:35:43.448Z,81.38
2023-01-21T08:38:09.866Z,81.07
2023-01-21T08:40:36.294Z,81.12
2023-01-21T08:43:04.655Z,81.16
2023-01-21T08:45:31.454Z,81.27
2023-01-21T08:47:57.973Z,81.38
2023-01-21T08:50:24.704Z,81.76
2023-01-21T08:52:55.455Z,82.24
2023-01-21T08:55:24.903Z,82.03
2023-01-21T08:57:53.400Z,81.74
2023-01-21T09:00:21.406Z,81.80
2023-01-21T09:02:49.980Z,82.02
2023-01-21T09:05:18.315Z,81.93
2023-01-21T09:07:45.679Z,82.32
2023-01-21T09:10:12.715Z,82.19
2023-01-21T09:12:41.950Z,82.36
2023-01-21T09:15:08.741Z,82.31
2023-01-21T09:17:35.155Z,82.55
2023-01-21T09:20:01.573Z,82.48
2023-01-21T09:22:27.980Z,82.30
2023-01-21T09:24:54.378Z,81.89
2023-01-21T09:27:27.149Z,82.39
2023-01-21T09:29:54.778Z,82.42
2023-01-21T09:32:21.167Z,82.54
2023-01-21T09:34:47.540Z,82.30
2023-01-21T09:37:13.910Z,82.37
2023-01-21T09:39:40.286Z,82.54
2023-01-21T09:42:17.760Z,83.71
2023-01-21T09:44:49.827Z,82.53
2023-01-21T09:47:28.076Z,83.15
2023-01-21T09:50:16.652Z,82.14
2023-01-21T09:52:46.608Z,82.38
2023-01-21T09:55:24.130Z,82.56
2023-01-21T09:58:23.733Z,83.16
2023-01-21T10:00:58.818Z,83.04
2023-01-21T10:03:43.586Z,83.03
2023-01-21T10:06:12.222Z,82.31
2023-01-21T10:08:44.530Z,82.25
2023-01-21T10:11:13.852Z,82.24
2023-01-21T10:14:05.113Z,82.65
2023-01-21T10:16:43.976Z,82.33
2023-01-21T10:19:17.253Z,82.33
2023-01-21T10:21:56.888Z,82.72
2023-01-21T10:24:33.042Z,82.68
2023-01-21T10:27:00.297Z,81.98
2023-01-21T10:29:27.605Z,82.12
2023-01-21T10:32:02.624Z,83.22
2023-01-21T10:34:37.976Z,83.29
2023-01-21T10:37:41.574Z,83.46
2023-01-21T10:40:17.236Z,83.10
2023-01-21T10:42:51.568Z,83.01
2023-01-21T10:45:34.315Z,83.95
2023-01-21T10:48:00.664Z,82.80
2023-01-21T10:50:39.510Z,83.64
2023-01-21T10:53:28.907Z,84.13
2023-01-21T10:56:04.112Z,82.89
2023-01-21T10:58:45.991Z,82.95
2023-01-21T11:01:22.584Z,81.95
2023-01-21T11:03:59.212Z,82.14
2023-01-21T11:06:26.457Z,81.76
2023-01-21T11:08:58.219Z,81.61
2023-01-21T11:11:33.066Z,80.67
2023-01-21T11:13:59.627Z,80.28
2023-01-21T11:16:48.895Z,80.60
2023-01-21T11:19:22.833Z,80.13
2023-01-21T11:22:13.964Z,81.22
2023-01-21T11:24:49.302Z,81.01
2023-01-21T11:27:34.829Z,80.84
2023-01-21T11:30:01.891Z,79.72
2023-01-21T11:32:30.260Z,79.62
2023-01-21T11:35:10.428Z,79.31
2023-01-21T11:37:38.199Z,78.08
2023-01-21T11:40:14.743Z,77.72
2023-01-21T11:42:49.448Z,78.46
2023-01-21T11:45:29.963Z,77.57
2023-01-21T11:47:57.586Z,76.02
2023-01-21T11:50:35.555Z,76.59
2023-01-21T11:53:08.885Z,76.62
2023-01-21T11:55:40.671Z,76.10
2023-01-21T11:58:20.001Z,76.39
2023-01-21T12:00:48.319Z,75.41
2023-01-21T12:03:18.920Z,75.44
2023-01-21T12:05:49.588Z,74.72
2023-01-21T12:08:24.005Z,74.99
2023-01-21T12:10:52.963Z,74.59
2023-01-21T12:13:26.349Z,74.95
2023-01-21T12:16:32.324Z,74.91
2023-01-21T12:19:03.619Z,73.55
2023-01-21T12:22:12.671Z,75.01
2023-01-21T12:24:42.117Z,73.43
2023-01-21T12:27:46.835Z,74.50
2023-01-21T12:31:05.922Z,74.70
2023-01-21T12:33:32.336Z,73.33
2023-01-21T12:36:10.949Z,74.16
2023-01-21T12:38:44.839Z,74.44
2023-01-21T12:41:20.772Z,74.46
2023-01-21T12:43:52.834Z,74.27
2023-01-21T12:46:35.060Z,73.86
2023-01-21T12:49:16.467Z,73.90
2023-01-21T12:51:46.268Z,72.73
2023-01-21T12:54:34.755Z,73.55
2023-01-21T12:57:20.399Z,71.85
2023-01-21T12:59:54.694Z,71.40
2023-01-21T13:02:40.880Z,71.30
2023-01-21T13:05:21.651Z,70.22
2023-01-21T13:07:54.253Z,69.52
2023-01-21T13:10:30.670Z,68.73
2023-01-21T13:13:14.299Z,68.17
2023-01-21T13:15:44.975Z,66.70
2023-01-21T13:18:23.537Z,67.89
2023-01-21T13:20:58.887Z,67.56
2023-01-21T13:23:46.506Z,67.58
2023-01-21T13:26:31.762Z,66.87
2023-01-21T13:29:16.194Z,66.72
2023-01-21T13:31:58.106Z,66.08
2023-01-21T13:34:45.069Z,66.08
2023-01-21T13:37:20.702Z,66.13
2023-01-21T13:40:00.098Z,66.13
2023-01-21T13:42:54.722Z,66.55
2023-01-21T13:46:06.448Z,66.39
2023-01-21T13:48:44.938Z,66.50
2023-01-21T13:51:44.177Z,67.03
2023-01-21T13:54:25.947Z,67.11
2023-01-21T13:57:33.458Z,67.38
2023-01-21T14:00:12.821Z,68.20
2023-01-21T14:02:48.628Z,68.38
2023-01-21T14:05:47.425Z,68.81
2023-01-21T14:08:24.929Z,69.44
2023-01-21T14:10:56.450Z,69.21
2023-01-21T14:13:47.913Z,69.93
2023-01-21T14:16:26.588Z,70.44
2023-01-21T14:19:28.236Z,70.22
2023-01-21T14:22:23.999Z,70.45
2023-01-21T14:25:05.640Z,70.72
2023-01-21T14:27:46.291Z,71.21
2023-01-21T14:30:20.817Z,71.31
2023-01-21T14:32:54.236Z,71.22
2023-01-21T14:35:41.718Z,71.41
2023-01-21T14:38:43.530Z,71.27
2023-01-21T14:41:11.673Z,70.75
2023-01-21T14:43:38.053Z,70.57
2023-01-21T14:46:22.601Z,71.00
2023-01-21T14:49:01.264Z,70.50
2023-01-21T14:51:30.877Z,70.06
2023-01-21T14:54:04.308Z,70.20
2023-01-21T14:56:35.238Z,70.08
2023-01-21T14:59:08.126Z,69.87
2023-01-21T15:01:44.994Z,69.75
2023-01-21T15:04:20.520Z,70.48
2023-01-21T15:06:50.548Z,70.33
2023-01-21T15:09:23.141Z,70.30
2023-01-21T15:11:55.329Z,70.31
2023-01-21T15:14:25.897Z,70.33
2023-01-21T15:16:52.943Z,70.38
2023-01-21T15:19:34.277Z,70.65
2023-01-21T15:22:18.353Z,70.90
2023-01-21T15:25:15.504Z,71.42
2023-01-21T15:27:42.134Z,70.97
2023-01-21T15:30:28.680Z,71.26
2023-01-21T15:32:55.886Z,70.77
2023-01-21T15:35:32.987Z,71.43
2023-01-21T15:38:04.108Z,71.00
2023-01-21T15:40:38.976Z,70.87
2023-01-21T15:43:32.983Z,70.87
2023-01-21T15:46:19.621Z,70.77
2023-01-21T15:49:08.903Z,71.15
2023-01-21T15:52:13.434Z,71.18
2023-01-21T15:54:54.088Z,71.00
2023-01-21T15:57:37.792Z,71.38
2023-01-21T16:00:23.114Z,71.03
2023-01-21T16:03:15.929Z,71.71
2023-01-21T16:06:04.237Z,71.86
2023-01-21T16:08:41.456Z,71.87
2023-01-21T16:11:41.191Z,71.72
2023-01-21T16:14:21.870Z,71.07
2023-01-21T16:17:02.577Z,72.53
2023-01-21T16:19:36.491Z,72.36
2023-01-21T16:22:08.774Z,72.41
2023-01-21T16:24:43.582Z,73.03
2023-01-21T16:27:18.940Z,74.07
2023-01-21T16:29:45.477Z,74.26
2023-01-21T16:32:20.474Z,74.56
2023-01-21T16:34:47.607Z,74.33
2023-01-21T16:37:20.747Z,74.74
2023-01-21T16:39:47.589Z,74.42
2023-01-21T16:42:24.960Z,75.52
2023-01-21T16:44:52.377Z,76.15
2023-01-21T16:47:33.353Z,76.81
2023-01-21T16:50:00.974Z,76.05
2023-01-21T16:52:28.284Z,76.61
2023-01-21T16:54:55.578Z,76.85
2023-01-21T16:57:31.441Z,77.08
2023-01-21T17:00:02.063Z,77.08
2023-01-21T17:02:33.389Z,77.00
2023-01-21T17:05:04.489Z,76.50
2023-01-21T17:07:32.345Z,76.17
2023-01-21T17:10:20.346Z,76.62
2023-01-21T17:12:49.828Z,74.90
2023-01-21T17:15:19.026Z,75.02
2023-01-21T17:17:46.201Z,74.59
2023-01-21T17:20:49.156Z,74.45
2023-01-21T17:23:21.436Z,74.55
2023-01-21T17:26:09.055Z,75.24
2023-01-21T17:28:45.356Z,74.90
2023-01-21T17:31:15.074Z,74.96
2023-01-21T17:33:43.794Z,74.86
2023-01-21T17:36:15.467Z,75.18
2023-01-21T17:38:45.065Z,75.15
2023-01-21T17:41:25.128Z,75.55
2023-01-21T17:43:55.434Z,74.20
2023-01-21T17:46:23.114Z,73.89
2023-01-21T17:49:14.253Z,74.21
2023-01-21T17:51:42.848Z,73.31
2023-01-21T17:54:23.008Z,73.25
2023-01-21T17:56:55.885Z,72.44
2023-01-21T17:59:28.775Z,72.58
2023-01-21T18:01:55.994Z,72.02
2023-01-21T18:04:23.165Z,71.99
2023-01-21T18:06:52.090Z,71.83
2023-01-21T18:09:20.812Z,71.28
2023-01-21T18:11:48.362Z,71.49
2023-01-21T18:14:20.560Z,72.07
2023-01-21T18:16:47.561Z,72.37
2023-01-21T18:19:29.758Z,72.74
2023-01-21T18:21:56.622Z,73.22
2023-01-21T18:24:23.973Z,73.37
2023-01-21T18:26:50.523Z,73.48
2023-01-21T18:29:18.402Z,73.50
2023-01-21T18:31:45.914Z,73.95
2023-01-21T18:34:12.363Z,73.61
2023-01-21T18:36:40.385Z,73.86
2023-01-21T18:39:14.418Z,73.64
2023-01-21T18:41:41.035Z,73.99
2023-01-21T18:44:08.067Z,73.56
2023-01-21T18:46:39.376Z,73.34
2023-01-21T18:49:12.652Z,74.16
2023-01-21T18:51:39.147Z,73.89
2023-01-21T18:54:07.227Z,73.26
2023-01-21T18:56:33.799Z,73.47
2023-01-21T18:59:00.365Z,73.22
2023-01-21T19:01:26.857Z,73.23
2023-01-21T19:03:54.860Z,73.01
2023-01-21T19:06:23.501Z,73.09
2023-01-21T19:08:49.966Z,72.85
2023-01-21T19:11:16.700Z,72.68
2023-01-21T19:13:43.181Z,72.75
2023-01-21T19:16:18.012Z,73.61
2023-01-21T19:18:44.504Z,72.70
2023-01-21T19:21:11.310Z,72.82
2023-01-21T19:23:37.914Z,73.05
2023-01-21T19:26:04.927Z,73.16
2023-01-21T19:28:31.548Z,73.01
2023-01-21T19:30:58.381Z,73.33
2023-01-21T19:33:25.548Z,73.36
2023-01-21T19:35:59.524Z,73.78
2023-01-21T19:38:26.494Z,73.76
2023-01-21T19:40:54.225Z,73.55
2023-01-21T19:43:21.623Z,73.81
2023-01-21T19:45:50.108Z,74.19
2023-01-21T19:48:19.942Z,73.84
2023-01-21T19:50:46.801Z,73.81
2023-01-21T19:53:18.395Z,73.61
2023-01-21T19:55:46.227Z,73.54
2023-01-21T19:58:22.246Z,74.54
2023-01-21T20:00:50.906Z,74.12
2023-01-21T20:03:19.129Z,73.56
2023-01-21T20:05:47.886Z,73.61
2023-01-21T20:08:21.468Z,74.09
2023-01-21T20:10:47.910Z,73.37
2023-01-21T20:13:15.506Z,74.03
2023-01-21T20:15:44.599Z,73.79
2023-01-21T20:18:21.784Z,74.71
2023-01-21T20:20:48.230Z,74.48
2023-01-21T20:23:16.688Z,74.61
2023-01-21T20:25:45.346Z,74.68
2023-01-21T20:28:20.224Z,74.81
2023-01-21T20:30:48.027Z,74.57
2023-01-21T20:33:17.499Z,75.00
2023-01-21T20:35:53.613Z,75.52
2023-01-21T20:38:26.724Z,75.32
2023-01-21T20:40:53.182Z,74.99
2023-01-21T20:43:20.446Z,75.00
2023-01-21T20:45:47.951Z,75.53
2023-01-21T20:48:24.234Z,75.95
2023-01-21T20:50:52.114Z,75.11
2023-01-21T20:53:19.132Z,75.20
2023-01-21T20:55:47.338Z,75.06
2023-01-21T20:58:14.818Z,75.05
2023-01-21T21:00:43.203Z,75.21
2023-01-21T21:03:10.481Z,74.81
2023-01-21T21:05:37.049Z,74.80
2023-01-21T21:08:03.758Z,74.63
2023-01-21T21:10:36.171Z,75.09
2023-01-21T21:13:03.597Z,74.85
2023-01-21T21:15:32.392Z,74.81
2023-01-21T21:17:59.375Z,74.42
2023-01-21T21:20:34.199Z,74.09
2023-01-21T21:23:01.401Z,73.98
2023-01-21T21:25:30.453Z,74.54
2023-01-21T21:27:56.884Z,73.93
2023-01-21T21:30:29.728Z,73.96
2023-01-21T21:32:58.014Z,74.01
2023-01-21T21:35:26.131Z,73.88
2023-01-21T21:37:54.350Z,74.07
2023-01-21T21:40:22.751Z,74.02
2023-01-21T21:43:08.085Z,74.19
2023-01-21T21:45:36.333Z,74.24
2023-01-21T21:48:23.339Z,73.98
2023-01-21T21:50:56.889Z,74.08
2023-01-21T21:53:23.953Z,73.63
2023-01-21T21:55:50.359Z,73.18
2023-01-21T21:58:16.969Z,73.32
2023-01-21T22:00:43.366Z,73.25
2023-01-21T22:03:11.724Z,73.08
2023-01-21T22:05:38.171Z,72.53
2023-01-21T22:08:05.094Z,72.52
2023-01-21T22:10:31.525Z,71.95
2023-01-21T22:12:57.918Z,71.89
2023-01-21T22:15:24.328Z,71.50
2023-01-21T22:17:50.781Z,71.65
2023-01-21T22:20:17.486Z,71.62
2023-01-21T22:22:43.900Z,70.88
2023-01-21T22:25:11.766Z,70.57
2023-01-21T22:27:38.175Z,70.32
2023-01-21T22:30:05.375Z,70.14
2023-01-21T22:32:31.786Z,69.97
2023-01-21T22:34:58.203Z,69.61
2023-01-21T22:37:27.384Z,69.81
2023-01-21T22:39:54.078Z,69.21
2023-01-21T22:42:20.527Z,68.56
2023-01-21T22:44:46.917Z,68.66
2023-01-21T22:47:13.407Z,68.42
2023-01-21T22:49:39.838Z,69.07
2023-01-21T22:52:06.300Z,68.74
2023-01-21T22:54:32.683Z,68.75
2023-01-21T22:56:59.299Z,68.82
2023-01-21T22:59:25.707Z,69.21
2023-01-21T23:01:52.298Z,68.91
2023-01-21T23:04:18.833Z,68.94
2023-01-21T23:06:47.597Z,68.75
2023-01-21T23:09:15.497Z,68.54
2023-01-21T23:11:42.320Z,68.89
2023-01-21T23:14:09.797Z,68.48
2023-01-21T23:16:36.321Z,68.83
2023-01-21T23:19:03.319Z,68.47
2023-01-21T23:21:29.763Z,68.60
2023-01-21T23:23:56.287Z,68.64
2023-01-21T23:26:23.032Z,68.82
2023-01-21T23:28:53.871Z,69.38
2023-01-21T23:31:20.414Z,69.00
2023-01-21T23:33:56.082Z,69.04
2023-01-21T23:36:22.889Z,68.79
2023-01-21T23:38:49.312Z,68.82
2023-01-21T23:41:17.157Z,68.67
2023-01-21T23:43:43.952Z,68.60
2023-01-21T23:46:19.849Z,68.83
2023-01-21T23:48:46.811Z,68.34
2023-01-21T23:51:15.095Z,68.98
2023-01-21T23:53:42.116Z,68.85
2023-01-21T23:56:24.035Z,68.74
2023-01-21T23:58:50.809Z,68.78
